地図

経路データ

SID SEASON NUMBER BASIN SUBBASIN NAME ISO_TIME NATURE LAT LON WMO_WIND WMO_PRES WMO_AGENCY TRACK_TYPE DIST2LAND LANDFALL IFLAG USA_AGENCY USA_ATCF_ID USA_LAT USA_LON USA_RECORD USA_STATUS USA_WIND USA_PRES USA_SSHS USA_R34_NE USA_R34_SE USA_R34_SW USA_R34_NW USA_R50_NE USA_R50_SE USA_R50_SW USA_R50_NW USA_R64_NE USA_R64_SE USA_R64_SW USA_R64_NW USA_POCI USA_ROCI USA_RMW USA_EYE TOKYO_LAT TOKYO_LON TOKYO_GRADE TOKYO_WIND TOKYO_PRES TOKYO_R50_DIR TOKYO_R50_LONG TOKYO_R50_SHORT TOKYO_R30_DIR TOKYO_R30_LONG TOKYO_R30_SHORT TOKYO_LAND CMA_LAT CMA_LON CMA_CAT CMA_WIND CMA_PRES HKO_LAT HKO_LON HKO_CAT HKO_WIND HKO_PRES NEWDELHI_LAT NEWDELHI_LON NEWDELHI_GRADE NEWDELHI_WIND NEWDELHI_PRES NEWDELHI_CI NEWDELHI_DP NEWDELHI_POCI REUNION_LAT REUNION_LON REUNION_TYPE REUNION_WIND REUNION_PRES REUNION_TNUM REUNION_CI REUNION_RMW REUNION_R34_NE REUNION_R34_SE REUNION_R34_SW REUNION_R34_NW REUNION_R50_NE REUNION_R50_SE REUNION_R50_SW REUNION_R50_NW REUNION_R64_NE REUNION_R64_SE REUNION_R64_SW REUNION_R64_NW BOM_LAT BOM_LON BOM_TYPE BOM_WIND BOM_PRES BOM_TNUM BOM_CI BOM_RMW BOM_R34_NE BOM_R34_SE BOM_R34_SW BOM_R34_NW BOM_R50_NE BOM_R50_SE BOM_R50_SW BOM_R50_NW BOM_R64_NE BOM_R64_SE BOM_R64_SW BOM_R64_NW BOM_ROCI BOM_POCI BOM_EYE BOM_POS_METHOD BOM_PRES_METHOD NADI_LAT NADI_LON NADI_CAT NADI_WIND NADI_PRES WELLINGTON_LAT WELLINGTON_LON WELLINGTON_WIND WELLINGTON_PRES DS824_LAT DS824_LON DS824_STAGE DS824_WIND DS824_PRES TD9636_LAT TD9636_LON TD9636_STAGE TD9636_WIND TD9636_PRES TD9635_LAT TD9635_LON TD9635_WIND TD9635_PRES TD9635_ROCI NEUMANN_LAT NEUMANN_LON NEUMANN_CLASS NEUMANN_WIND NEUMANN_PRES MLC_LAT MLC_LON MLC_CLASS MLC_WIND MLC_PRES USA_GUST BOM_GUST BOM_GUST_PER REUNION_GUST REUNION_GUST_PER USA_SEAHGT USA_SEARAD_NE USA_SEARAD_SE USA_SEARAD_SW USA_SEARAD_NW STORM_SPEED STORM_DIR
1955188N16261 1955 39 EP MM NOT_NAMED 1955-07-06 12:00:00 TS 15.8000 -99.0000 45 hurdat_epa main 70 70 O________OO___ hurdat_epa EP031955 15.8000 -99.0000 TS 45 0 15.8000 -99.0000 TC 45 15.8000 -99.0000 2 11 266
1955188N16261 1955 39 EP MM NOT_NAMED 1955-07-06 15:00:00 TS 15.7623 -99.5538 main 100 100 P________PP___ EP031955 15.7678 -99.5575 TS 45 0 15.7678 -99.5575 TC 45 15.7401 -99.5389 2 11 264
1955188N16261 1955 39 EP MM NOT_NAMED 1955-07-06 18:00:00 TS 15.6927 -100.094 45 hurdat_epa main 119 119 O________OP___ hurdat_epa EP031955 15.7000 -100.100 TS 45 0 15.7000 -100.100 TC 45 15.6636 -100.072 2 10 259
1955188N16261 1955 39 EP MM NOT_NAMED 1955-07-06 21:00:00 TS 15.5690 -100.611 main 156 156 P________PP___ EP031955 15.5724 -100.615 TS 45 0 15.5724 -100.615 TC 45 15.5553 -100.594 2 10 253
1955188N16261 1955 39 EP MM NOT_NAMED 1955-07-07 00:00:00 TS 15.4000 -101.100 45 hurdat_epa main 200 200 O________OO___ hurdat_epa EP031955 15.4000 -101.100 TS 45 0 15.4000 -101.100 TC 45 15.4000 -101.100 2 10 249
1955188N16261 1955 39 EP MM NOT_NAMED 1955-07-07 03:00:00 TS 15.2099 -101.563 main 239 239 P________PP___ EP031955 15.2149 -101.557 TS 45 0 15.2149 -101.557 TC 45 15.1903 -101.584 2 10 245
1955188N16261 1955 39 EP MM NOT_NAMED 1955-07-07 06:00:00 TS 14.9899 -102.009 45 hurdat_epa main 274 274 O________OP___ hurdat_epa EP031955 15.0000 -102.000 TS 45 0 15.0000 -102.000 TC 45 14.9496 -102.046 2 10 242
1955188N16261 1955 39 EP MM NOT_NAMED 1955-07-07 09:00:00 TS 14.7358 -102.469 main 327 327 P________PP___ EP031955 14.7425 -102.465 TS 45 0 14.7425 -102.465 TC 45 14.7091 -102.484 2 10 240
1955188N16261 1955 39 EP MM NOT_NAMED 1955-07-07 12:00:00 TS 14.5000 -102.900 45 hurdat_epa main 367 367 O________OO___ hurdat_epa EP031955 14.5000 -102.900 TS 45 0 14.5000 -102.900 TC 45 14.5000 -102.900 2 9 241
1955188N16261 1955 39 EP MM NOT_NAMED 1955-07-07 15:00:00 TS 14.3212 -103.256 main 410 410 P________PP___ EP031955 14.3198 -103.257 TS 45 0 14.3198 -103.257 TC 45 14.3266 -103.252 2 7 246
1955188N16261 1955 39 EP MM NOT_NAMED 1955-07-07 18:00:00 TS 14.1987 -103.598 45 hurdat_epa main 436 436 O________OP___ hurdat_epa EP031955 14.2000 -103.600 TS 45 0 14.2000 -103.600 TC 45 14.1936 -103.590 2 7 253
1955188N16261 1955 39 EP MM NOT_NAMED 1955-07-07 21:00:00 TS 14.1126 -103.956 main 461 461 P________PP___ EP031955 14.1122 -103.955 TS 45 0 14.1122 -103.955 TC 45 14.1139 -103.958 2 8 263
1955188N16261 1955 39 EP MM NOT_NAMED 1955-07-08 00:00:00 TS 14.1000 -104.400 45 hurdat_epa main 475 475 O________OO___ hurdat_epa EP031955 14.1000 -104.400 TS 45 0 14.1000 -104.400 TC 45 14.1000 -104.400 2 10 273
1955188N16261 1955 39 EP MM NOT_NAMED 1955-07-08 03:00:00 TS 14.1699 -105.010 main 486 486 P________PP___ EP031955 14.1701 -105.012 TS 45 0 14.1701 -105.012 TC 45 14.1693 -104.999 2 13 279
1955188N16261 1955 39 EP MM NOT_NAMED 1955-07-08 06:00:00 TS 14.2997 -105.694 45 hurdat_epa main 505 505 O________OP___ hurdat_epa EP031955 14.3000 -105.700 TS 45 0 14.3000 -105.700 TC 45 14.2987 -105.669 2 14 282
1955188N16261 1955 39 EP MM NOT_NAMED 1955-07-08 09:00:00 TS 14.4508 -106.375 main 525 525 P________PP___ EP031955 14.4500 -106.380 TS 45 0 14.4500 -106.380 TC 45 14.4537 -106.355 2 13 283
1955188N16261 1955 39 EP MM NOT_NAMED 1955-07-08 12:00:00 TS 14.6000 -107.000 45 hurdat_epa main 557 557 O________OO___ hurdat_epa EP031955 14.6000 -107.000 TS 45 0 14.6000 -107.000 TC 45 14.6000 -107.000 2 11 284
1955188N16261 1955 39 EP MM NOT_NAMED 1955-07-08 15:00:00 TS 14.7141 -107.490 main 579 579 P________PP___ EP031955 14.7147 -107.473 TS 45 0 14.7147 -107.473 TC 45 14.7116 -107.561 2 9 282
1955188N16261 1955 39 EP MM NOT_NAMED 1955-07-08 18:00:00 TS 14.7984 -107.930 45 hurdat_epa main 592 592 O________OP___ hurdat_epa EP031955 14.8000 -107.900 TS 45 0 14.8000 -107.900 TC 45 14.7920 -108.048 2 9 279
1955188N16261 1955 39 EP MM NOT_NAMED 1955-07-08 21:00:00 TS 14.8566 -108.401 main 614 614 P________PP___ EP031955 14.8579 -108.380 TS 45 0 14.8579 -108.380 TC 45 14.8513 -108.486 2 9 276
1955188N16261 1955 39 EP MM NOT_NAMED 1955-07-09 00:00:00 TS 14.9000 -108.900 45 hurdat_epa main 649 O________OO___ hurdat_epa EP031955 14.9000 -108.900 TS 45 0 14.9000 -108.900 TC 45 14.9000 -108.900 2 10 275

IBTrACS Databaseについて

本データベースは、米国NOAAが公開する1842年以降の世界の熱帯低気圧のベストトラックデータアーカイブInternational Best Track Archive for Climate Stewardship (IBTrACS)を、ウェブで閲覧しやすい形式に変換したものです。

最終更新日:2021-10-27